Time;durP1;ratioP1;P1;durP2;ratioP2;P2;SDS_P1;SDS_P2;PMS_P1;PMS_P2;Temp;Humidity;BMP_temperature;BMP_pressure;BME280_temperature;BME280_humidity;BME280_pressure;Samples;Min_cycle;Max_cycle;Signal;HPM_P1;HPM_P2
2023/02/04 00:01:49;;;;;;;4.73;3.87;;;;;;;;;;5055132;28;20217;-89
2023/02/04 00:04:15;;;;;;;5.63;4.20;;;;;;;;;;5055008;28;20295;-89
2023/02/04 00:06:42;;;;;;;6.33;3.60;;;;;;;;;;5054970;28;20256;-89
2023/02/04 00:09:09;;;;;;;6.03;3.63;;;;;;;;;;5055071;28;20208;-89
2023/02/04 00:11:36;;;;;;;4.87;4.37;;;;;;;;;;5055215;28;20264;-89
2023/02/04 00:14:03;;;;;;;6.20;4.50;;;;;;;;;;5055488;28;20259;-90
2023/02/04 00:16:30;;;;;;;6.97;5.20;;;;;;;;;;5072720;28;20201;-89
2023/02/04 00:18:58;;;;;;;12.03;6.90;;;;;;;;;;5075667;28;20216;-89
2023/02/04 00:21:25;;;;;;;12.83;9.23;;;;;;;;;;5070163;28;20241;-91
2023/02/04 00:23:51;;;;;;;16.27;10.57;;;;;;;;;;5054831;28;20235;-89
2023/02/04 00:26:18;;;;;;;12.27;8.23;;;;;;;;;;5055178;28;20213;-90
2023/02/04 00:28:45;;;;;;;8.20;6.83;;;;;;;;;;5066441;28;20645;-89
2023/02/04 00:31:12;;;;;;;8.93;6.57;;;;;;;;;;5075057;28;20655;-89
2023/02/04 00:33:41;;;;;;;11.03;6.50;;;;;;;;;;5075065;28;20333;-89
2023/02/04 00:36:10;;;;;;;6.43;5.77;;;;;;;;;;5075157;28;20209;-89
2023/02/04 00:38:36;;;;;;;7.20;6.20;;;;;;;;;;5074576;28;20350;-89
2023/02/04 00:41:04;;;;;;;10.00;6.50;;;;;;;;;;5073932;28;20658;-89
2023/02/04 00:43:30;;;;;;;8.17;6.17;;;;;;;;;;5061202;28;20206;-90
2023/02/04 00:45:57;;;;;;;9.10;6.37;;;;;;;;;;5067807;28;20236;-90
2023/02/04 00:48:24;;;;;;;12.30;9.33;;;;;;;;;;5067872;28;20262;-89
2023/02/04 00:50:52;;;;;;;29.10;20.37;;;;;;;;;;5054489;28;20742;-89
2023/02/04 00:53:21;;;;;;;39.47;30.43;;;;;;;;;;5054222;28;20214;-89
2023/02/04 00:55:47;;;;;;;50.67;37.83;;;;;;;;;;5061947;28;20205;-89
2023/02/04 00:58:14;;;;;;;46.03;37.07;;;;;;;;;;5073215;28;20213;-90
2023/02/04 01:00:41;;;;;;;29.87;23.03;;;;;;;;;;5061703;28;20675;-89
2023/02/04 01:03:08;;;;;;;17.73;13.50;;;;;;;;;;5074454;28;20216;-89
2023/02/04 01:05:34;;;;;;;16.03;11.97;;;;;;;;;;5074878;28;20240;-89
2023/02/04 01:08:01;;;;;;;12.40;11.07;;;;;;;;;;5072375;28;20258;-90
2023/02/04 01:10:30;;;;;;;12.83;10.13;;;;;;;;;;5054257;28;20205;-91
2023/02/04 01:12:56;;;;;;;5.93;4.87;;;;;;;;;;5054469;28;20209;-89
2023/02/04 01:15:26;;;;;;;5.87;3.87;;;;;;;;;;5054226;28;20214;-89
2023/02/04 01:17:53;;;;;;;4.33;4.03;;;;;;;;;;5054280;28;20205;-89
2023/02/04 01:20:20;;;;;;;4.40;4.00;;;;;;;;;;5054061;28;20228;-89
2023/02/04 01:22:47;;;;;;;6.30;5.70;;;;;;;;;;5053992;28;20206;-89
2023/02/04 01:25:13;;;;;;;5.93;5.20;;;;;;;;;;5053334;28;20815;-89
2023/02/04 01:27:42;;;;;;;6.07;5.47;;;;;;;;;;5070865;28;20584;-90
2023/02/04 01:30:10;;;;;;;5.53;5.03;;;;;;;;;;5063810;28;20206;-90
2023/02/04 01:32:37;;;;;;;5.53;5.03;;;;;;;;;;5057089;28;20267;-91
2023/02/04 01:35:04;;;;;;;6.37;5.07;;;;;;;;;;5073720;28;20263;-90
2023/02/04 01:37:30;;;;;;;5.83;5.23;;;;;;;;;;5069599;28;20283;-90
2023/02/04 01:39:57;;;;;;;8.07;5.97;;;;;;;;;;5053338;28;20234;-90
2023/02/04 01:42:24;;;;;;;9.73;7.17;;;;;;;;;;5053785;28;20210;-90
2023/02/04 01:44:53;;;;;;;13.40;9.50;;;;;;;;;;5053651;28;20213;-90
2023/02/04 01:47:20;;;;;;;14.00;10.63;;;;;;;;;;5053141;28;20236;-90
2023/02/04 01:49:48;;;;;;;19.73;10.87;;;;;;;;;;5053568;28;20209;-91
2023/02/04 01:52:15;;;;;;;10.37;8.63;;;;;;;;;;5070755;28;20216;-90
2023/02/04 01:54:42;;;;;;;11.67;6.87;;;;;;;;;;5061423;28;20255;-90
2023/02/04 01:57:15;;;;;;;4.57;3.90;;;;;;;;;;5053366;28;20213;-90
2023/02/04 01:59:43;;;;;;;7.10;5.23;;;;;;;;;;5053226;28;20676;-90
2023/02/04 02:02:43;;;;;;;5.93;4.93;;;;;;;;;;5039802;28;20206;-89
2023/02/04 02:05:11;;;;;;;6.60;5.07;;;;;;;;;;5050222;28;20233;-90
2023/02/04 02:07:39;;;;;;;6.40;5.83;;;;;;;;;;5053491;28;20205;-89
2023/02/04 02:10:08;;;;;;;5.30;4.77;;;;;;;;;;5053686;28;20343;-89
2023/02/04 02:12:34;;;;;;;5.40;4.90;;;;;;;;;;5052885;28;20208;-90
2023/02/04 02:15:01;;;;;;;5.47;4.83;;;;;;;;;;5053334;28;20630;-91
2023/02/04 02:17:29;;;;;;;4.83;4.23;;;;;;;;;;5053349;28;20687;-93
2023/02/04 02:19:57;;;;;;;5.37;4.87;;;;;;;;;;5053071;28;20206;-90
2023/02/04 02:22:27;;;;;;;7.13;5.27;;;;;;;;;;5052896;28;20198;-90
2023/02/04 02:24:55;;;;;;;7.50;6.00;;;;;;;;;;5053182;28;20197;-90
2023/02/04 02:27:22;;;;;;;6.63;5.90;;;;;;;;;;5066067;28;20679;-90
2023/02/04 02:29:50;;;;;;;7.10;5.70;;;;;;;;;;5060319;28;20266;-90
2023/02/04 02:32:17;;;;;;;10.63;7.40;;;;;;;;;;5071893;28;20291;-90
2023/02/04 02:34:45;;;;;;;10.70;8.47;;;;;;;;;;5060504;28;20205;-90
2023/02/04 02:37:12;;;;;;;7.13;6.10;;;;;;;;;;5071317;28;20209;-90
2023/02/04 02:39:41;;;;;;;16.43;11.33;;;;;;;;;;5061495;28;20205;-90
2023/02/04 02:42:10;;;;;;;7.23;5.77;;;;;;;;;;5072856;28;20240;-91
2023/02/04 02:44:36;;;;;;;4.03;3.73;;;;;;;;;;5072993;28;20216;-90
2023/02/04 02:47:03;;;;;;;4.57;4.00;;;;;;;;;;5070736;28;20637;-91
2023/02/04 02:49:31;;;;;;;4.17;3.77;;;;;;;;;;5053164;28;20637;-91
2023/02/04 02:51:58;;;;;;;4.60;4.23;;;;;;;;;;5053047;28;20209;-91
2023/02/04 02:54:27;;;;;;;5.00;4.13;;;;;;;;;;5053258;28;20638;-90
2023/02/04 02:56:54;;;;;;;4.13;3.73;;;;;;;;;;5065993;28;20201;-90
2023/02/04 02:59:23;;;;;;;3.70;3.40;;;;;;;;;;5052020;28;20205;-91
2023/02/04 03:01:53;;;;;;;4.63;3.57;;;;;;;;;;5056557;28;20790;-90
2023/02/04 03:04:20;;;;;;;3.53;3.23;;;;;;;;;;5074772;28;20784;-91
2023/02/04 03:06:47;;;;;;;3.93;3.50;;;;;;;;;;5076419;28;20211;-93
2023/02/04 03:09:14;;;;;;;3.17;2.77;;;;;;;;;;5064495;28;20209;-91
2023/02/04 03:11:41;;;;;;;5.90;4.90;;;;;;;;;;5062176;28;20201;-90
2023/02/04 03:14:08;;;;;;;32.93;22.70;;;;;;;;;;5063592;28;20205;-90
2023/02/04 03:16:37;;;;;;;15.57;12.37;;;;;;;;;;5056040;28;20209;-90
2023/02/04 03:19:05;;;;;;;18.63;14.30;;;;;;;;;;5056557;28;20232;-90
2023/02/04 03:21:31;;;;;;;8.20;7.40;;;;;;;;;;5055243;28;20222;-85
2023/02/04 03:23:58;;;;;;;11.23;7.50;;;;;;;;;;5053593;28;20202;-80
2023/02/04 03:26:25;;;;;;;7.07;6.37;;;;;;;;;;5073418;28;20684;-80
2023/02/04 03:28:54;;;;;;;9.47;6.70;;;;;;;;;;5074147;28;20205;-80
2023/02/04 03:31:21;;;;;;;8.17;6.00;;;;;;;;;;5073367;28;20197;-80
2023/02/04 03:33:50;;;;;;;8.50;6.07;;;;;;;;;;5073972;28;20205;-81
2023/02/04 03:36:17;;;;;;;7.50;6.73;;;;;;;;;;5073364;28;20582;-80
2023/02/04 03:38:43;;;;;;;9.10;5.97;;;;;;;;;;5073515;28;20215;-80
2023/02/04 03:41:10;;;;;;;6.47;5.87;;;;;;;;;;5066874;28;20298;-80
2023/02/04 03:43:37;;;;;;;8.83;7.33;;;;;;;;;;5054063;28;20217;-81
2023/02/04 03:46:04;;;;;;;8.73;6.23;;;;;;;;;;5065339;28;20209;-80
2023/02/04 03:48:31;;;;;;;9.20;6.70;;;;;;;;;;5062848;28;20213;-80
2023/02/04 03:50:59;;;;;;;4.70;4.20;;;;;;;;;;5067270;28;20209;-80
2023/02/04 03:53:26;;;;;;;4.67;4.27;;;;;;;;;;5060382;28;20205;-80
2023/02/04 03:55:53;;;;;;;7.50;3.87;;;;;;;;;;5060916;28;20209;-80
2023/02/04 03:58:19;;;;;;;3.87;3.10;;;;;;;;;;5068303;28;20259;-81
2023/02/04 04:00:46;;;;;;;4.10;3.33;;;;;;;;;;5073372;28;20278;-78
2023/02/04 04:03:13;;;;;;;3.77;3.33;;;;;;;;;;5073136;28;20212;-78
2023/02/04 04:05:40;;;;;;;4.20;3.80;;;;;;;;;;5073390;28;20233;-78
2023/02/04 04:08:08;;;;;;;3.97;3.67;;;;;;;;;;5073111;28;20263;-78
2023/02/04 04:10:35;;;;;;;6.17;4.07;;;;;;;;;;5073480;28;20258;-78
2023/02/04 04:13:01;;;;;;;4.60;4.17;;;;;;;;;;5073491;28;20257;-78
2023/02/04 04:15:29;;;;;;;4.80;4.33;;;;;;;;;;5071938;28;20646;-78
2023/02/04 04:17:56;;;;;;;4.20;3.80;;;;;;;;;;5073030;28;20250;-78
2023/02/04 04:20:24;;;;;;;3.80;3.50;;;;;;;;;;5073051;28;20217;-78
2023/02/04 04:22:51;;;;;;;4.60;4.20;;;;;;;;;;5072552;28;20201;-78
2023/02/04 04:25:22;;;;;;;4.37;4.07;;;;;;;;;;5072981;28;20205;-81
2023/02/04 04:27:48;;;;;;;8.30;5.73;;;;;;;;;;5052005;28;20206;-80
2023/02/04 04:30:15;;;;;;;6.13;5.40;;;;;;;;;;5063416;28;20262;-81
2023/02/04 04:32:42;;;;;;;7.23;5.77;;;;;;;;;;5055062;28;20206;-80
2023/02/04 04:35:09;;;;;;;9.27;7.33;;;;;;;;;;5073010;28;20204;-81
2023/02/04 04:37:36;;;;;;;12.47;6.90;;;;;;;;;;5059455;28;20204;-81
2023/02/04 04:40:04;;;;;;;7.27;5.20;;;;;;;;;;5063146;28;20206;-81
2023/02/04 04:42:33;;;;;;;6.20;5.60;;;;;;;;;;5052568;28;20712;-81
2023/02/04 04:44:59;;;;;;;10.13;7.27;;;;;;;;;;5052987;28;20221;-81
2023/02/04 04:47:26;;;;;;;10.40;9.40;;;;;;;;;;5057109;28;20200;-81
2023/02/04 04:49:53;;;;;;;8.70;7.53;;;;;;;;;;5061826;28;21184;-81
2023/02/04 04:52:20;;;;;;;7.53;5.93;;;;;;;;;;5052391;28;20696;-80
2023/02/04 04:54:46;;;;;;;24.07;13.50;;;;;;;;;;5063525;28;20254;-81
2023/02/04 04:57:13;;;;;;;46.73;25.20;;;;;;;;;;5071870;28;20687;-81
2023/02/04 04:59:41;;;;;;;19.97;12.50;;;;;;;;;;5072238;28;20205;-81
2023/02/04 05:02:08;;;;;;;28.20;18.90;;;;;;;;;;5053357;28;20222;-82
2023/02/04 05:04:35;;;;;;;79.10;40.30;;;;;;;;;;5051278;28;20223;-81
2023/02/04 05:07:02;;;;;;;63.03;33.33;;;;;;;;;;5051975;28;20259;-81
2023/02/04 05:09:29;;;;;;;62.93;28.87;;;;;;;;;;5065480;28;20214;-81
2023/02/04 05:11:56;;;;;;;44.53;22.43;;;;;;;;;;5063628;28;20201;-81
2023/02/04 05:14:23;;;;;;;11.93;8.43;;;;;;;;;;5071478;28;20720;-81
2023/02/04 05:16:51;;;;;;;31.07;20.87;;;;;;;;;;5060779;28;20202;-81
2023/02/04 05:19:17;;;;;;;10.20;8.23;;;;;;;;;;5065722;28;20198;-81
2023/02/04 05:21:44;;;;;;;16.57;12.47;;;;;;;;;;5063238;28;20220;-81
2023/02/04 05:24:11;;;;;;;9.43;8.47;;;;;;;;;;5071707;28;20196;-81
2023/02/04 05:26:38;;;;;;;7.33;5.90;;;;;;;;;;5067005;28;20239;-81
2023/02/04 05:29:04;;;;;;;4.77;4.37;;;;;;;;;;5058266;28;20646;-81
2023/02/04 05:31:32;;;;;;;9.40;4.80;;;;;;;;;;5071590;28;20201;-81
2023/02/04 05:34:00;;;;;;;21.87;17.00;;;;;;;;;;5058552;28;20628;-81
2023/02/04 05:36:27;;;;;;;23.17;15.87;;;;;;;;;;5058531;28;20210;-82
2023/02/04 05:38:53;;;;;;;36.33;21.70;;;;;;;;;;5064841;28;20205;-81
2023/02/04 05:41:20;;;;;;;11.40;9.27;;;;;;;;;;5051404;28;20702;-81
2023/02/04 05:43:47;;;;;;;7.20;6.10;;;;;;;;;;5064187;28;20749;-80
2023/02/04 05:46:14;;;;;;;5.50;4.90;;;;;;;;;;5051644;28;20264;-80
2023/02/04 05:48:41;;;;;;;4.87;3.87;;;;;;;;;;5064410;28;20205;-81
2023/02/04 05:51:09;;;;;;;10.27;8.13;;;;;;;;;;5060305;28;20692;-81
2023/02/04 05:53:36;;;;;;;17.33;11.93;;;;;;;;;;5071283;28;20213;-81
2023/02/04 05:56:03;;;;;;;10.87;8.93;;;;;;;;;;5061972;28;20202;-80
2023/02/04 05:58:32;;;;;;;9.63;7.30;;;;;;;;;;5064805;28;20201;-80
2023/02/04 06:01:00;;;;;;;8.03;7.20;;;;;;;;;;5059695;28;20201;-86
2023/02/04 06:03:28;;;;;;;8.30;7.10;;;;;;;;;;5054885;28;20599;-81
2023/02/04 06:05:54;;;;;;;13.40;9.30;;;;;;;;;;5057164;28;20969;-81
2023/02/04 06:08:23;;;;;;;11.93;8.60;;;;;;;;;;5051963;28;20214;-81
2023/02/04 06:10:50;;;;;;;11.77;9.47;;;;;;;;;;5064376;28;20251;-80
2023/02/04 06:13:17;;;;;;;13.73;10.03;;;;;;;;;;5059006;28;20204;-80
2023/02/04 06:15:43;;;;;;;16.33;10.63;;;;;;;;;;5057031;28;20206;-80
2023/02/04 06:18:10;;;;;;;16.67;10.23;;;;;;;;;;5070242;28;20201;-82
2023/02/04 06:20:37;;;;;;;16.27;10.90;;;;;;;;;;5057520;28;20208;-83
2023/02/04 06:23:04;;;;;;;13.77;10.17;;;;;;;;;;5058181;28;20233;-83
2023/02/04 06:25:32;;;;;;;14.40;10.57;;;;;;;;;;5058204;28;20220;-84
2023/02/04 06:27:59;;;;;;;11.73;7.90;;;;;;;;;;5065659;28;20719;-87
2023/02/04 06:30:25;;;;;;;10.20;6.93;;;;;;;;;;5050824;28;20206;-84
2023/02/04 06:32:52;;;;;;;7.97;6.70;;;;;;;;;;5050698;28;20236;-84
2023/02/04 06:35:19;;;;;;;9.80;7.97;;;;;;;;;;5064050;28;20266;-85
2023/02/04 06:37:46;;;;;;;8.63;6.07;;;;;;;;;;5070961;28;20205;-84
2023/02/04 06:40:13;;;;;;;12.97;9.83;;;;;;;;;;5075296;28;20235;-84
2023/02/04 06:42:41;;;;;;;8.63;7.73;;;;;;;;;;5061656;28;20232;-84
2023/02/04 06:45:08;;;;;;;16.37;10.83;;;;;;;;;;5070605;28;20200;-84
2023/02/04 06:47:35;;;;;;;36.03;19.57;;;;;;;;;;5041915;28;20209;-84
2023/02/04 06:50:02;;;;;;;47.47;22.33;;;;;;;;;;5068322;28;20741;-84
2023/02/04 06:52:29;;;;;;;15.53;10.20;;;;;;;;;;5052844;28;20297;-83
2023/02/04 06:54:56;;;;;;;3.67;3.37;;;;;;;;;;5054420;28;20209;-82
2023/02/04 06:57:23;;;;;;;5.13;3.80;;;;;;;;;;5058519;28;20259;-83
2023/02/04 06:59:51;;;;;;;7.83;4.90;;;;;;;;;;5064198;28;20217;-83
2023/02/04 07:02:17;;;;;;;60.07;21.93;;;;;;;;;;5054183;28;20225;-83
2023/02/04 07:04:44;;;;;;;34.57;15.17;;;;;;;;;;5066667;28;20302;-83
2023/02/04 07:07:11;;;;;;;13.40;5.97;;;;;;;;;;5055505;28;20206;-83
2023/02/04 07:09:39;;;;;;;7.97;6.50;;;;;;;;;;5066934;28;20258;-83
2023/02/04 07:12:06;;;;;;;7.37;6.33;;;;;;;;;;5054557;28;20198;-83
2023/02/04 07:14:33;;;;;;;27.33;22.13;;;;;;;;;;5054544;28;20658;-83
2023/02/04 07:17:01;;;;;;;19.67;14.43;;;;;;;;;;5067700;28;20206;-83
2023/02/04 07:19:28;;;;;;;18.77;14.23;;;;;;;;;;5068164;28;20201;-82
2023/02/04 07:21:55;;;;;;;12.37;10.07;;;;;;;;;;5074119;28;20228;-83
2023/02/04 07:24:23;;;;;;;7.83;6.87;;;;;;;;;;5074369;28;20572;-83
2023/02/04 07:26:49;;;;;;;7.13;5.93;;;;;;;;;;5064633;28;20201;-83
2023/02/04 07:29:17;;;;;;;7.63;6.13;;;;;;;;;;5054352;28;20271;-82
2023/02/04 07:31:45;;;;;;;6.37;5.60;;;;;;;;;;5064156;28;20208;-82
2023/02/04 07:34:14;;;;;;;7.10;6.37;;;;;;;;;;5070665;28;20282;-82
2023/02/04 07:36:40;;;;;;;7.67;5.80;;;;;;;;;;5054222;28;20206;-82
2023/02/04 07:39:07;;;;;;;6.80;6.10;;;;;;;;;;5066999;28;20213;-83
2023/02/04 07:41:34;;;;;;;7.03;6.33;;;;;;;;;;5054089;28;20194;-82
2023/02/04 07:44:01;;;;;;;6.63;6.03;;;;;;;;;;5058241;28;20751;-81
2023/02/04 07:46:28;;;;;;;6.13;5.63;;;;;;;;;;5073982;28;20197;-82
2023/02/04 07:48:55;;;;;;;12.83;7.20;;;;;;;;;;5055476;28;20593;-82
2023/02/04 07:51:27;;;;;;;11.10;7.77;;;;;;;;;;5064412;28;20642;-82
2023/02/04 07:53:54;;;;;;;6.53;5.93;;;;;;;;;;5073352;28;20772;-82
2023/02/04 07:56:21;;;;;;;7.27;5.33;;;;;;;;;;5061076;28;20202;-82
2023/02/04 07:58:47;;;;;;;4.80;4.30;;;;;;;;;;5053801;28;20588;-81
2023/02/04 08:01:14;;;;;;;6.13;5.53;;;;;;;;;;5053468;28;20209;-82
2023/02/04 08:03:41;;;;;;;5.03;4.53;;;;;;;;;;5066664;28;20229;-82
2023/02/04 08:06:08;;;;;;;5.03;4.07;;;;;;;;;;5066524;28;20260;-82
2023/02/04 08:08:36;;;;;;;6.90;5.23;;;;;;;;;;5066531;28;20212;-82
2023/02/04 08:11:05;;;;;;;5.97;5.17;;;;;;;;;;5053818;28;20260;-81
2023/02/04 08:13:32;;;;;;;4.10;3.70;;;;;;;;;;5065362;28;20209;-81
2023/02/04 08:15:59;;;;;;;5.37;4.07;;;;;;;;;;5066470;28;20201;-81
2023/02/04 08:18:25;;;;;;;4.40;3.80;;;;;;;;;;5061433;28;20209;-81
2023/02/04 08:20:53;;;;;;;5.50;4.23;;;;;;;;;;5057638;28;20623;-81
2023/02/04 08:23:19;;;;;;;4.47;3.60;;;;;;;;;;5053149;28;20640;-81
2023/02/04 08:25:47;;;;;;;4.73;4.33;;;;;;;;;;5053776;28;20202;-82
2023/02/04 08:28:14;;;;;;;4.83;4.23;;;;;;;;;;5053215;28;20268;-80
2023/02/04 08:30:41;;;;;;;4.40;3.70;;;;;;;;;;5053960;28;20774;-81
2023/02/04 08:33:08;;;;;;;4.20;3.70;;;;;;;;;;5072868;28;20216;-81
2023/02/04 08:35:37;;;;;;;4.10;3.57;;;;;;;;;;5072875;28;20300;-81
2023/02/04 08:38:04;;;;;;;3.90;3.60;;;;;;;;;;5072788;28;20204;-81
2023/02/04 08:40:31;;;;;;;4.33;3.93;;;;;;;;;;5072588;28;20262;-81
2023/02/04 08:42:59;;;;;;;4.70;4.07;;;;;;;;;;5063794;28;20304;-81
2023/02/04 08:45:26;;;;;;;3.57;3.27;;;;;;;;;;5066089;28;20206;-82
2023/02/04 08:47:53;;;;;;;2.83;2.63;;;;;;;;;;5052904;28;20206;-83
2023/02/04 08:50:22;;;;;;;5.20;4.10;;;;;;;;;;5066012;28;20755;-83
2023/02/04 08:52:49;;;;;;;23.83;16.03;;;;;;;;;;5052220;28;20640;-84
2023/02/04 08:55:16;;;;;;;5.17;4.13;;;;;;;;;;5062030;28;20195;-84
2023/02/04 08:57:42;;;;;;;3.63;3.33;;;;;;;;;;5053611;28;20205;-84
2023/02/04 09:00:13;;;;;;;3.73;2.57;;;;;;;;;;5059743;28;20200;-84
2023/02/04 09:02:40;;;;;;;3.07;2.70;;;;;;;;;;5071981;28;20232;-82
2023/02/04 09:05:07;;;;;;;2.50;2.30;;;;;;;;;;5067196;28;20221;-86
2023/02/04 09:07:34;;;;;;;3.03;2.73;;;;;;;;;;5063818;28;20201;-82
2023/02/04 09:10:01;;;;;;;3.10;2.80;;;;;;;;;;5071665;28;20208;-81
2023/02/04 09:12:27;;;;;;;3.97;2.93;;;;;;;;;;5072559;28;20623;-81
2023/02/04 09:14:54;;;;;;;4.20;3.50;;;;;;;;;;5071940;28;20940;-81
2023/02/04 09:17:30;;;;;;;3.50;3.23;;;;;;;;;;5072213;28;20212;-80
2023/02/04 09:19:57;;;;;;;4.87;3.83;;;;;;;;;;5071763;28;20204;-81
2023/02/04 09:22:24;;;;;;;9.03;7.20;;;;;;;;;;5071049;28;20224;-81
2023/02/04 09:24:50;;;;;;;6.47;5.07;;;;;;;;;;5064406;28;20202;-81
2023/02/04 09:27:18;;;;;;;4.50;4.10;;;;;;;;;;5066039;28;20204;-81
2023/02/04 09:29:45;;;;;;;4.17;3.77;;;;;;;;;;5045461;28;20223;-82
2023/02/04 09:32:12;;;;;;;3.43;2.50;;;;;;;;;;5071316;28;20209;-82
2023/02/04 09:34:40;;;;;;;5.47;2.20;;;;;;;;;;5071493;28;20681;-83
2023/02/04 09:37:06;;;;;;;4.90;3.20;;;;;;;;;;5058341;28;20209;-82
2023/02/04 09:39:34;;;;;;;4.10;3.10;;;;;;;;;;5071658;28;20201;-81
2023/02/04 09:42:01;;;;;;;3.60;3.30;;;;;;;;;;5070689;28;20216;-82
2023/02/04 09:44:28;;;;;;;4.00;3.63;;;;;;;;;;5064321;28;20221;-81
2023/02/04 09:46:56;;;;;;;2.93;2.67;;;;;;;;;;5051933;28;20206;-82
2023/02/04 09:49:23;;;;;;;3.37;3.07;;;;;;;;;;5063335;28;20672;-81
2023/02/04 09:51:51;;;;;;;4.73;4.20;;;;;;;;;;5053023;28;20210;-82
2023/02/04 09:54:19;;;;;;;3.77;2.90;;;;;;;;;;5063048;28;20198;-82
2023/02/04 09:56:46;;;;;;;3.00;2.80;;;;;;;;;;5051210;28;20202;-82
2023/02/04 09:59:16;;;;;;;2.90;2.50;;;;;;;;;;5051626;28;20201;-82
2023/02/04 10:01:43;;;;;;;2.37;2.23;;;;;;;;;;5067047;28;20205;-83
2023/02/04 10:04:12;;;;;;;4.23;2.50;;;;;;;;;;5070815;28;20235;-82
2023/02/04 10:06:39;;;;;;;2.50;2.30;;;;;;;;;;5071322;28;20193;-82
2023/02/04 10:09:09;;;;;;;2.60;2.40;;;;;;;;;;5061313;28;20209;-82
2023/02/04 10:11:38;;;;;;;2.47;2.27;;;;;;;;;;5064452;28;20642;-82
2023/02/04 10:14:05;;;;;;;13.63;9.77;;;;;;;;;;5061128;28;20657;-82
2023/02/04 10:16:33;;;;;;;6.90;5.77;;;;;;;;;;5052485;28;20205;-82
2023/02/04 10:19:02;;;;;;;2.03;1.93;;;;;;;;;;5051359;28;20279;-82
2023/02/04 10:21:31;;;;;;;1.60;1.50;;;;;;;;;;5064353;28;20205;-82
2023/02/04 10:23:59;;;;;;;1.50;1.40;;;;;;;;;;5051198;28;20221;-81
2023/02/04 10:26:28;;;;;;;12.00;8.50;;;;;;;;;;5064308;28;20738;-83
2023/02/04 10:29:00;;;;;;;3.60;3.30;;;;;;;;;;5051210;28;20288;-83
2023/02/04 10:31:33;;;;;;;2.83;2.63;;;;;;;;;;5045089;28;20341;-82
2023/02/04 10:34:21;;;;;;;2.90;2.20;;;;;;;;;;5069317;28;20772;-83
2023/02/04 10:36:49;;;;;;;2.40;2.20;;;;;;;;;;5047425;28;20205;-83
2023/02/04 10:39:18;;;;;;;2.03;1.93;;;;;;;;;;5064043;28;20616;-83
2023/02/04 10:41:48;;;;;;;2.23;2.10;;;;;;;;;;5050852;28;20213;-83
2023/02/04 10:44:17;;;;;;;2.13;1.93;;;;;;;;;;5056357;28;20225;-83
2023/02/04 10:46:44;;;;;;;2.80;2.50;;;;;;;;;;5070345;28;20205;-83
2023/02/04 10:49:22;;;;;;;2.13;2.00;;;;;;;;;;5057127;28;20258;-83
2023/02/04 10:51:51;;;;;;;2.30;2.10;;;;;;;;;;5069730;28;20216;-83
2023/02/04 10:54:31;;;;;;;2.67;2.10;;;;;;;;;;5058931;28;20209;-84
2023/02/04 10:57:07;;;;;;;2.60;2.40;;;;;;;;;;5066819;28;20263;-83
2023/02/04 10:59:35;;;;;;;1.97;1.87;;;;;;;;;;5062127;28;20205;-83
2023/02/04 11:02:32;;;;;;;2.50;2.30;;;;;;;;;;5065386;28;20324;-83
2023/02/04 11:05:01;;;;;;;4.73;3.27;;;;;;;;;;5066338;28;20298;-84
2023/02/04 11:07:28;;;;;;;3.67;3.37;;;;;;;;;;5070565;28;20209;-83
2023/02/04 11:09:55;;;;;;;4.20;3.33;;;;;;;;;;5056957;28;20242;-83
2023/02/04 11:12:38;;;;;;;3.43;3.13;;;;;;;;;;5070843;28;20262;-83
2023/02/04 11:15:07;;;;;;;3.17;2.87;;;;;;;;;;5056856;28;20204;-83
2023/02/04 11:17:35;;;;;;;3.20;2.90;;;;;;;;;;5057935;28;20217;-83
2023/02/04 11:20:15;;;;;;;4.30;3.03;;;;;;;;;;5043356;28;20274;-83
2023/02/04 11:22:43;;;;;;;18.70;10.10;;;;;;;;;;5055576;28;20263;-82
2023/02/04 11:25:31;;;;;;;32.33;15.60;;;;;;;;;;5061228;28;20193;-84
2023/02/04 11:28:00;;;;;;;30.73;16.27;;;;;;;;;;5055365;28;20211;-84
2023/02/04 11:30:33;;;;;;;10.20;5.13;;;;;;;;;;5053544;28;20221;-80
2023/02/04 11:33:02;;;;;;;7.93;6.43;;;;;;;;;;5060849;28;20292;-82
2023/02/04 11:35:30;;;;;;;5.73;5.17;;;;;;;;;;5060408;28;20202;-82
2023/02/04 11:37:57;;;;;;;5.37;4.77;;;;;;;;;;5066335;28;20622;-82
2023/02/04 11:40:27;;;;;;;4.50;3.90;;;;;;;;;;5067081;28;20213;-82
2023/02/04 11:43:00;;;;;;;3.47;3.10;;;;;;;;;;5062222;28;20687;-82
2023/02/04 11:45:29;;;;;;;3.43;3.13;;;;;;;;;;5073191;28;20209;-81
2023/02/04 11:47:58;;;;;;;3.20;2.90;;;;;;;;;;5063679;28;20650;-82
2023/02/04 11:50:28;;;;;;;3.70;3.33;;;;;;;;;;5067324;28;20285;-82
2023/02/04 11:52:55;;;;;;;4.20;3.33;;;;;;;;;;5054088;28;20197;-83
2023/02/04 11:55:22;;;;;;;2.83;2.63;;;;;;;;;;5066490;28;20206;-82
2023/02/04 11:57:52;;;;;;;2.33;2.13;;;;;;;;;;5065390;28;20212;-83
2023/02/04 12:00:22;;;;;;;2.20;1.97;;;;;;;;;;5054815;28;20206;-82
2023/02/04 12:02:50;;;;;;;2.23;2.03;;;;;;;;;;5065961;28;20201;-82
2023/02/04 12:05:19;;;;;;;6.17;2.17;;;;;;;;;;5072846;28;20285;-82
2023/02/04 12:07:48;;;;;;;1.60;1.50;;;;;;;;;;5073609;28;20212;-82
2023/02/04 12:10:24;;;;;;;2.07;1.80;;;;;;;;;;5053661;28;20197;-83
2023/02/04 12:12:57;;;;;;;1.80;1.70;;;;;;;;;;5066978;28;20292;-82
2023/02/04 12:15:34;;;;;;;1.17;1.07;;;;;;;;;;5062560;28;20217;-81
2023/02/04 12:18:02;;;;;;;1.20;1.10;;;;;;;;;;5073034;28;20196;-82
2023/02/04 12:20:29;;;;;;;2.93;1.93;;;;;;;;;;5073042;28;20759;-82
2023/02/04 12:22:56;;;;;;;1.20;1.10;;;;;;;;;;5068465;28;20202;-82
2023/02/04 12:25:23;;;;;;;2.90;1.73;;;;;;;;;;5052899;28;20340;-81
2023/02/04 12:27:50;;;;;;;1.90;1.80;;;;;;;;;;5053444;28;20588;-83
2023/02/04 12:30:19;;;;;;;1.43;1.33;;;;;;;;;;5052762;28;20685;-83
2023/02/04 12:32:47;;;;;;;1.63;1.50;;;;;;;;;;5052917;28;20210;-85
2023/02/04 12:35:14;;;;;;;1.40;1.30;;;;;;;;;;5064995;28;20205;-82
2023/02/04 12:37:41;;;;;;;3.83;3.40;;;;;;;;;;5066727;28;20210;-82
2023/02/04 12:40:09;;;;;;;2.73;2.47;;;;;;;;;;5065016;28;20641;-83
2023/02/04 12:42:35;;;;;;;3.33;3.03;;;;;;;;;;5067023;28;20209;-82
2023/02/04 12:45:02;;;;;;;2.67;2.30;;;;;;;;;;5052871;28;20233;-82
2023/02/04 12:47:29;;;;;;;1.47;1.40;;;;;;;;;;5066396;28;20202;-82
2023/02/04 12:49:57;;;;;;;2.40;2.20;;;;;;;;;;5065384;28;20287;-83
2023/02/04 12:52:24;;;;;;;4.57;3.50;;;;;;;;;;5059389;28;20197;-83
2023/02/04 12:54:51;;;;;;;2.07;1.80;;;;;;;;;;5072805;28;20201;-83
2023/02/04 12:57:18;;;;;;;2.47;1.33;;;;;;;;;;5059844;28;20202;-83
2023/02/04 12:59:46;;;;;;;1.80;1.70;;;;;;;;;;5065658;28;20696;-83
2023/02/04 13:02:12;;;;;;;2.10;1.90;;;;;;;;;;5059405;28;20247;-82
2023/02/04 13:04:40;;;;;;;7.43;5.50;;;;;;;;;;5058382;28;20234;-82
2023/02/04 13:07:09;;;;;;;4.60;3.87;;;;;;;;;;5052281;28;20613;-83
2023/02/04 13:09:35;;;;;;;4.13;2.93;;;;;;;;;;5067762;28;20209;-83
2023/02/04 13:12:03;;;;;;;3.33;2.97;;;;;;;;;;5063433;28;20194;-83
2023/02/04 13:14:31;;;;;;;3.47;3.17;;;;;;;;;;5052446;28;20217;-84
2023/02/04 13:16:58;;;;;;;4.03;3.10;;;;;;;;;;5053043;28;20928;-84
2023/02/04 13:19:27;;;;;;;5.20;4.23;;;;;;;;;;5052605;28;20218;-83
2023/02/04 13:21:54;;;;;;;3.37;3.07;;;;;;;;;;5044192;28;20634;-83
2023/02/04 13:24:22;;;;;;;5.43;3.23;;;;;;;;;;5054570;28;20224;-83
2023/02/04 13:26:49;;;;;;;1.70;1.60;;;;;;;;;;5056379;28;20689;-84
2023/02/04 13:29:16;;;;;;;1.70;1.60;;;;;;;;;;5058107;28;20202;-83
2023/02/04 13:31:46;;;;;;;1.77;1.47;;;;;;;;;;5053414;28;20216;-82
2023/02/04 13:34:15;;;;;;;1.90;1.80;;;;;;;;;;5071939;28;20231;-82
2023/02/04 13:36:43;;;;;;;2.27;2.17;;;;;;;;;;5071845;28;20205;-82
2023/02/04 13:39:10;;;;;;;2.00;1.70;;;;;;;;;;5062877;28;20225;-82
2023/02/04 13:41:38;;;;;;;3.40;2.23;;;;;;;;;;5051968;28;20252;-82
2023/02/04 13:44:05;;;;;;;1.10;1.10;;;;;;;;;;5051884;28;20310;-82
2023/02/04 13:46:32;;;;;;;2.13;1.60;;;;;;;;;;5054618;28;20772;-82
2023/02/04 13:48:59;;;;;;;1.40;1.30;;;;;;;;;;5061424;28;20680;-82
2023/02/04 13:51:26;;;;;;;1.30;1.20;;;;;;;;;;5054671;28;20639;-82
2023/02/04 13:53:52;;;;;;;0.93;0.93;;;;;;;;;;5061313;28;20209;-82
2023/02/04 13:56:22;;;;;;;1.40;1.30;;;;;;;;;;5065201;28;20205;-82
2023/02/04 13:58:50;;;;;;;0.80;0.80;;;;;;;;;;5051612;28;20201;-81
2023/02/04 14:01:17;;;;;;;1.30;1.27;;;;;;;;;;5051364;28;20220;-82
2023/02/04 14:03:44;;;;;;;2.37;2.17;;;;;;;;;;5062336;28;20245;-82
2023/02/04 14:06:10;;;;;;;3.60;3.30;;;;;;;;;;5067212;28;20226;-82
2023/02/04 14:08:37;;;;;;;1.90;1.70;;;;;;;;;;5051188;28;20684;-82
2023/02/04 14:11:06;;;;;;;1.40;1.30;;;;;;;;;;5069402;28;20627;-82
2023/02/04 14:13:33;;;;;;;1.57;1.30;;;;;;;;;;5071378;28;20291;-83
2023/02/04 14:16:01;;;;;;;2.13;1.90;;;;;;;;;;5065320;28;20629;-83
2023/02/04 14:18:28;;;;;;;1.33;1.23;;;;;;;;;;5051550;28;20209;-83
2023/02/04 14:20:54;;;;;;;2.67;2.20;;;;;;;;;;5051304;28;20225;-82
2023/02/04 14:23:23;;;;;;;2.83;1.80;;;;;;;;;;5051511;28;20206;-86
2023/02/04 14:25:49;;;;;;;3.43;1.30;;;;;;;;;;5052021;28;20313;-82
2023/02/04 14:28:16;;;;;;;2.17;1.23;;;;;;;;;;5063194;28;20674;-82
2023/02/04 14:30:45;;;;;;;0.70;0.70;;;;;;;;;;5051079;28;20197;-82
2023/02/04 14:33:14;;;;;;;2.40;1.10;;;;;;;;;;5059572;28;20262;-82
2023/02/04 14:35:43;;;;;;;1.07;1.07;;;;;;;;;;5071164;28;20237;-82
2023/02/04 14:38:12;;;;;;;0.87;0.87;;;;;;;;;;5061650;28;20202;-82
2023/02/04 14:40:38;;;;;;;0.90;0.90;;;;;;;;;;5054099;28;20197;-82
2023/02/04 14:43:06;;;;;;;1.10;1.00;;;;;;;;;;5060807;28;20209;-82